METAR Luftfahrt Wetterdaten     LSZH Zürich Airport
Temperatur
-2°C Temperatur
-2°C Taupunkt
100% Feuchtigkeit



Wind
2 KM/h
1 MPS
0 M/S
1 KTS



Kein Wind
Nord
Aktuelle Wetterlage

Shallow Nebel Shallow Nebel
Luftdruck 1028.92 (hPa) - 30.38 (inHg)
Sichtweite 6.2 (Meile) - 10 (Km)
Flughafen
Flughafen Code LSZH

Position : Zürich Airport
Entfernung: 60 (Km)

Metar:
LSZH 310620Z VRB01KT 9999 MIFG FEW011 SCT035 M02/M02 Q1029 NOSIG

Zeit: 31-01-2023 07:20 CET